Time;durP1;ratioP1;P1;durP2;ratioP2;P2;SDS_P1;SDS_P2;PMS_P1;PMS_P2;Temp;Humidity;BMP_temperature;BMP_pressure;BME280_temperature;BME280_humidity;BME280_pressure;Samples;Min_cycle;Max_cycle;Signal;HPM_P1;HPM_P2
2024/01/13 00:00:12;;;;;;;;;44.00;39.00;;;;;7.24;100.00;102447.03;2097099;28;45141;-75
2024/01/13 00:01:12;;;;;;;;;53.80;41.00;;;;;7.23;100.00;102434.66;2096624;28;45084;-74
2024/01/13 00:02:13;;;;;;;;;48.75;42.00;;;;;7.21;100.00;102439.00;2097661;28;46848;-74
2024/01/13 00:03:13;;;;;;;;;47.25;40.50;;;;;7.22;100.00;102442.53;2097899;28;46409;-74
2024/01/13 00:04:14;;;;;;;;;54.50;44.75;;;;;7.22;100.00;102440.78;2098109;28;45882;-75
2024/01/13 00:05:14;;;;;;;;;51.25;40.75;;;;;7.24;100.00;102448.75;2097394;28;45445;-74
2024/01/13 00:06:15;;;;;;;;;54.25;41.75;;;;;7.23;100.00;102444.31;2097485;28;45999;-75
2024/01/13 00:07:16;;;;;;;;;41.60;35.60;;;;;7.21;100.00;102436.38;2096821;28;46825;-75
2024/01/13 00:08:16;;;;;;;;;30.00;25.75;;;;;7.19;100.00;102435.47;2094728;28;46565;-75
2024/01/13 00:09:16;;;;;;;;;53.00;42.00;;;;;7.16;100.00;102434.50;2097750;28;46359;-74
2024/01/13 00:10:17;;;;;;;;;49.25;38.50;;;;;7.15;100.00;102435.38;2097078;28;46218;-74
2024/01/13 00:11:17;;;;;;;;;38.00;35.75;;;;;7.15;100.00;102440.66;2097595;28;46836;-75
2024/01/13 00:12:17;;;;;;;;;43.75;38.25;;;;;7.12;100.00;102436.22;2097814;28;45794;-75
2024/01/13 00:13:18;;;;;;;;;52.25;40.50;;;;;7.11;100.00;102436.16;2097981;28;46505;-74
2024/01/13 00:14:18;;;;;;;;;41.50;38.25;;;;;7.13;100.00;102435.34;2097568;28;46217;-75
2024/01/13 00:15:19;;;;;;;;;53.25;40.25;;;;;7.12;100.00;102436.22;2097022;28;46410;-75
2024/01/13 00:16:19;;;;;;;;;39.75;37.25;;;;;7.14;100.00;102436.25;2094123;28;46330;-75
2024/01/13 00:17:19;;;;;;;;;43.50;38.00;;;;;7.15;100.00;102433.63;2096625;28;46175;-74
2024/01/13 00:18:20;;;;;;;;;48.25;38.50;;;;;7.18;100.00;102432.78;2096895;28;46154;-76
2024/01/13 00:19:20;;;;;;;;;37.50;36.50;;;;;7.19;100.00;102432.81;2095078;28;46687;-73
2024/01/13 00:20:20;;;;;;;;;44.75;38.25;;;;;7.19;100.00;102422.25;2096863;28;47469;-74
2024/01/13 00:21:20;;;;;;;;;49.75;39.00;;;;;7.19;100.00;102424.00;2097205;28;45575;-74
2024/01/13 00:22:21;;;;;;;;;50.25;41.00;;;;;7.18;100.00;102423.13;2097664;28;45581;-75
2024/01/13 00:23:21;;;;;;;;;50.75;42.50;;;;;7.18;100.00;102419.59;2097452;28;45719;-75
2024/01/13 00:24:21;;;;;;;;;39.50;36.00;;;;;7.16;100.00;102416.91;2098025;28;46705;-74
2024/01/13 00:25:22;;;;;;;;;40.75;38.00;;;;;7.06;100.00;102417.59;2096753;28;46330;-74
2024/01/13 00:26:23;;;;;;;;;42.25;38.00;;;;;7.03;100.00;102412.25;2096654;28;46489;-76
2024/01/13 00:27:23;;;;;;;;;50.75;38.25;;;;;7.09;100.00;102415.00;2097463;28;47045;-75
2024/01/13 00:28:23;;;;;;;;;41.75;33.75;;;;;7.09;100.00;102417.66;2096187;28;46656;-75
2024/01/13 00:29:23;;;;;;;;;39.75;35.75;;;;;7.11;100.00;102415.91;2097642;28;45425;-75
2024/01/13 00:30:24;;;;;;;;;48.00;38.50;;;;;7.10;100.00;102411.50;2097643;28;46466;-74
2024/01/13 00:31:24;;;;;;;;;44.50;36.50;;;;;7.11;100.00;102407.13;2097421;28;45915;-74
2024/01/13 00:32:24;;;;;;;;;47.00;38.75;;;;;7.09;100.00;102402.69;2103240;28;45410;-75
2024/01/13 00:33:25;;;;;;;;;45.50;36.50;;;;;7.09;100.00;102407.97;2098346;27;45891;-75
2024/01/13 00:34:25;;;;;;;;;46.50;35.00;;;;;7.09;100.00;102401.81;2098192;28;45402;-75
2024/01/13 00:35:25;;;;;;;;;44.75;38.25;;;;;7.11;100.00;102401.84;2096500;28;46803;-76
2024/01/13 00:36:26;;;;;;;;;42.00;38.50;;;;;7.08;100.00;102400.91;2097256;28;45559;-76
2024/01/13 00:37:26;;;;;;;;;42.00;39.00;;;;;6.99;100.00;102398.13;2097673;28;46228;-75
2024/01/13 00:38:26;;;;;;;;;46.00;37.25;;;;;6.96;100.00;102395.41;2097417;28;46298;-75
2024/01/13 00:39:27;;;;;;;;;44.25;37.00;;;;;6.94;100.00;102398.88;2097546;28;45383;-75
2024/01/13 00:40:27;;;;;;;;;39.75;33.50;;;;;6.95;100.00;102395.38;2094383;28;45054;-75
2024/01/13 00:41:27;;;;;;;;;45.00;35.00;;;;;7.02;100.00;102392.91;2094849;28;45607;-73
2024/01/13 00:42:28;;;;;;;;;50.50;41.25;;;;;7.05;100.00;102399.97;2096331;28;45875;-75
2024/01/13 00:43:28;;;;;;;;;45.75;37.75;;;;;7.04;100.00;102398.19;2096752;28;45522;-74
2024/01/13 00:44:28;;;;;;;;;48.25;39.00;;;;;7.06;100.00;102400.00;2097274;28;46516;-74
2024/01/13 00:45:29;;;;;;;;;43.00;36.75;;;;;7.00;100.00;102405.19;2097239;28;46881;-74
2024/01/13 00:46:29;;;;;;;;;44.75;38.00;;;;;6.98;100.00;102400.69;2097987;28;45831;-73
2024/01/13 00:47:29;;;;;;;;;38.50;34.75;;;;;6.98;100.00;102401.59;2095166;28;46355;-73
2024/01/13 00:48:30;;;;;;;;;45.00;37.00;;;;;6.98;100.00;102396.31;2093163;28;46190;-73
2024/01/13 00:49:30;;;;;;;;;44.75;38.25;;;;;6.98;100.00;102398.94;2096948;28;45985;-74
2024/01/13 00:50:32;;;;;;;;;44.75;39.75;;;;;6.99;100.00;102395.47;2096858;28;48312;-74
2024/01/13 00:51:33;;;;;;;;;36.40;35.00;;;;;6.99;100.00;102402.50;2096806;28;46105;-78
2024/01/13 00:52:34;;;;;;;;;45.25;37.00;;;;;6.99;100.00;102403.41;2088370;28;45225;-76
2024/01/13 00:53:34;;;;;;;;;42.75;38.50;;;;;6.99;100.00;102405.16;2096416;28;46255;-75
2024/01/13 00:54:35;;;;;;;;;53.75;39.25;;;;;6.99;100.00;102403.41;2097059;28;46603;-77
2024/01/13 00:55:35;;;;;;;;;43.50;37.50;;;;;6.98;100.00;102406.88;2097170;28;46433;-77
2024/01/13 00:56:36;;;;;;;;;40.25;37.75;;;;;6.99;100.00;102397.22;2097598;28;45807;-74
2024/01/13 00:57:36;;;;;;;;;44.00;37.00;;;;;7.00;100.00;102406.94;2096186;28;47359;-74
2024/01/13 00:58:37;;;;;;;;;50.00;41.25;;;;;7.07;100.00;102398.25;2097221;28;46323;-75
2024/01/13 00:59:38;;;;;;;;;50.80;37.40;;;;;7.09;100.00;102396.53;2097574;28;46279;-75
2024/01/13 01:00:38;;;;;;;;;45.50;38.25;;;;;7.25;100.00;102398.63;2096049;28;45544;-75
2024/01/13 01:01:38;;;;;;;;;46.25;39.25;;;;;7.29;100.00;102396.91;2097557;28;45459;-75
2024/01/13 01:02:39;;;;;;;;;44.75;38.00;;;;;7.32;100.00;102394.31;2097678;28;45966;-74
2024/01/13 01:03:39;;;;;;;;;50.25;39.00;;;;;7.31;100.00;102389.91;2095831;28;46605;-75
2024/01/13 01:04:39;;;;;;;;;51.75;38.25;;;;;7.31;100.00;102390.81;2096994;28;46000;-79
2024/01/13 01:05:40;;;;;;;;;45.50;38.75;;;;;7.32;100.00;102391.69;2096874;28;45129;-78
2024/01/13 01:06:40;;;;;;;;;49.00;41.25;;;;;7.31;100.00;102390.81;2096648;28;45607;-79
2024/01/13 01:07:40;;;;;;;;;37.75;31.50;;;;;7.30;100.00;102399.59;2097185;28;46863;-78
2024/01/13 01:08:41;;;;;;;;;57.75;41.50;;;;;7.29;100.00;102397.81;2096902;28;47009;-78
2024/01/13 01:09:41;;;;;;;;;42.25;37.75;;;;;7.29;100.00;102392.53;2096427;28;46256;-79
2024/01/13 01:10:41;;;;;;;;;41.50;36.50;;;;;7.30;100.00;102396.94;2096490;28;45631;-79
2024/01/13 01:11:42;;;;;;;;;45.25;36.25;;;;;7.33;100.00;102396.09;2097394;28;46048;-79
2024/01/13 01:12:43;;;;;;;;;41.20;35.00;;;;;7.34;100.00;102404.06;2096532;28;45300;-79
2024/01/13 01:13:43;;;;;;;;;42.25;36.75;;;;;7.34;100.00;102397.88;2097000;28;46148;-84
2024/01/13 01:14:44;;;;;;;;;44.50;34.25;;;;;7.36;100.00;102396.16;2096987;28;47576;-84
2024/01/13 01:15:44;;;;;;;;;47.25;35.75;;;;;7.38;100.00;102397.09;2096782;28;45477;-83
2024/01/13 01:16:44;;;;;;;;;39.75;36.50;;;;;7.40;100.00;102395.38;2097599;28;46637;-84
2024/01/13 01:17:45;;;;;;;;;47.00;39.25;;;;;7.41;100.00;102398.91;2097252;28;45067;-80
2024/01/13 01:18:45;;;;;;;;;34.75;31.00;;;;;7.41;100.00;102391.88;2097126;28;46310;-79
2024/01/13 01:19:45;;;;;;;;;46.75;39.25;;;;;7.42;100.00;102390.13;2095090;28;48967;-81
2024/01/13 01:20:46;;;;;;;;;42.00;36.25;;;;;7.43;100.00;102383.97;2095773;28;46618;-78
2024/01/13 01:21:46;;;;;;;;;42.00;32.75;;;;;7.42;100.00;102383.06;2095976;28;45621;-78
2024/01/13 01:22:46;;;;;;;;;33.50;25.75;;;;;7.42;100.00;102383.06;2096481;28;46156;-78
2024/01/13 01:23:48;;;;;;;;;36.25;34.25;;;;;7.42;100.00;102382.19;2097117;28;45511;-78
2024/01/13 01:24:48;;;;;;;;;42.00;35.80;;;;;7.43;100.00;102381.31;2096516;28;46366;-77
2024/01/13 01:25:48;;;;;;;;;42.25;36.25;;;;;7.41;100.00;102385.69;2097067;28;46529;-79
2024/01/13 01:26:49;;;;;;;;;33.00;31.00;;;;;7.37;100.00;102385.66;2097043;28;46544;-78
2024/01/13 01:27:49;;;;;;;;;42.00;36.25;;;;;7.37;100.00;102383.00;2096994;28;46202;-79
2024/01/13 01:28:49;;;;;;;;;46.75;37.25;;;;;7.37;100.00;102385.66;2096674;28;45854;-79
2024/01/13 01:29:50;;;;;;;;;45.00;37.75;;;;;7.38;100.00;102379.50;2091589;28;45537;-77
2024/01/13 01:30:50;;;;;;;;;48.50;39.00;;;;;7.37;100.00;102382.13;2097120;28;46619;-78
2024/01/13 01:31:50;;;;;;;;;43.00;38.25;;;;;7.34;100.00;102380.28;2097556;28;45554;-78
2024/01/13 01:32:51;;;;;;;;;43.75;38.25;;;;;7.35;100.00;102382.06;2094568;28;45956;-79
2024/01/13 01:33:51;;;;;;;;;47.50;38.75;;;;;7.35;100.00;102376.78;2096958;28;46093;-79
2024/01/13 01:34:51;;;;;;;;;38.75;35.00;;;;;7.35;100.00;102384.69;2097082;28;45488;-79
2024/01/13 01:35:52;;;;;;;;;50.25;39.00;;;;;7.35;100.00;102387.34;2094299;28;46790;-79
2024/01/13 01:36:52;;;;;;;;;43.75;35.00;;;;;7.34;100.00;102393.50;2097098;28;45505;-78
2024/01/13 01:37:52;;;;;;;;;42.25;37.00;;;;;7.32;100.00;102391.69;2096373;28;45845;-79
2024/01/13 01:38:53;;;;;;;;;45.50;34.25;;;;;7.31;100.00;102393.44;2097115;28;46432;-77
2024/01/13 01:39:53;;;;;;;;;38.25;32.50;;;;;7.33;100.00;102398.75;2096770;28;45896;-78
2024/01/13 01:40:54;;;;;;;;;43.00;35.25;;;;;7.32;100.00;102392.56;2097135;28;46451;-78
2024/01/13 01:41:54;;;;;;;;;47.60;39.40;;;;;7.31;100.00;102389.91;2096387;28;46660;-76
2024/01/13 01:42:55;;;;;;;;;43.00;36.00;;;;;7.30;100.00;102388.13;2096938;28;46674;-76
2024/01/13 01:43:55;;;;;;;;;39.75;35.25;;;;;7.30;100.00;102388.13;2097106;28;45828;-78
2024/01/13 01:44:55;;;;;;;;;39.75;35.25;;;;;7.30;100.00;102389.03;2097073;28;46672;-77
2024/01/13 01:45:59;;;;;;;;;48.50;36.50;;;;;7.29;100.00;102395.16;2096714;28;46215;-76
2024/01/13 01:47:00;;;;;;;;;43.20;38.20;;;;;7.26;100.00;102387.19;2096936;28;46126;-77
2024/01/13 01:48:04;;;;;;;;;44.40;37.60;;;;;7.27;100.00;102399.53;2097091;28;46427;-75
2024/01/13 01:49:05;;;;;;;;;46.20;39.00;;;;;7.27;100.00;102398.66;2095886;28;46552;-76
2024/01/13 01:50:08;;;;;;;;;41.40;35.80;;;;;7.28;100.00;102398.69;2097732;28;45629;-77
2024/01/13 01:51:10;;;;;;;;;48.40;41.20;;;;;7.26;100.00;102389.84;2097085;28;46109;-76
2024/01/13 01:52:11;;;;;;;;;48.80;40.80;;;;;7.26;100.00;102396.88;2096746;28;46434;-76
2024/01/13 01:53:11;;;;;;;;;49.00;40.20;;;;;7.23;100.00;102397.69;2092519;28;45739;-75
2024/01/13 01:54:13;;;;;;;;;57.50;47.50;;;;;7.24;100.00;102394.22;2096241;28;45646;-76
2024/01/13 01:55:13;;;;;;;;;74.80;59.00;;;;;7.24;100.00;102393.28;2096838;28;46020;-76
2024/01/13 01:56:18;;;;;;;;;77.00;61.00;;;;;7.25;100.00;102393.34;2095505;28;45697;-76
2024/01/13 01:57:21;;;;;;;;;69.60;55.40;;;;;7.26;100.00;102384.56;2097526;28;46316;-76
2024/01/13 01:58:21;;;;;;;;;45.20;38.40;;;;;7.28;100.00;102389.88;2104990;27;47492;-77
2024/01/13 01:59:22;;;;;;;;;53.75;42.50;;;;;7.30;100.00;102385.50;2098577;28;46432;-78
2024/01/13 02:00:22;;;;;;;;;44.75;38.75;;;;;7.31;100.00;102384.63;2096645;28;46377;-78
2024/01/13 02:01:23;;;;;;;;;44.25;36.50;;;;;7.31;100.00;102385.53;2096406;28;46209;-76
2024/01/13 02:02:26;;;;;;;;;42.60;35.60;;;;;7.32;100.00;102376.72;2089228;28;46305;-78
2024/01/13 02:03:26;;;;;;;;;43.60;37.60;;;;;7.33;100.00;102383.78;2087877;28;45576;-78
2024/01/13 02:04:26;;;;;;;;;43.50;36.25;;;;;7.32;100.00;102376.72;2096906;28;45530;-78
2024/01/13 02:05:28;;;;;;;;;40.25;33.75;;;;;7.32;100.00;102375.84;2095563;28;46546;-78
2024/01/13 02:06:28;;;;;;;;;41.60;35.60;;;;;7.30;100.00;102373.19;2093585;28;47174;-77
2024/01/13 02:07:32;;;;;;;;;41.00;32.75;;;;;7.31;100.00;102374.06;2095428;28;45729;-77
2024/01/13 02:08:33;;;;;;;;;46.60;35.80;;;;;7.30;100.00;102369.66;2095159;28;46716;-77
2024/01/13 02:09:34;;;;;;;;;29.20;27.60;;;;;7.29;100.00;102379.31;2097369;28;45747;-77
2024/01/13 02:10:34;;;;;;;;;33.50;32.00;;;;;7.29;100.00;102376.69;2097412;28;45682;-76
2024/01/13 02:11:34;;;;;;;;;39.50;35.00;;;;;7.28;100.00;102371.38;2097045;28;45833;-77
2024/01/13 02:12:36;;;;;;;;;36.00;28.25;;;;;7.29;100.00;102373.16;2096838;28;45936;-76
2024/01/13 02:13:37;;;;;;;;;35.20;34.60;;;;;7.28;100.00;102377.56;2096756;28;46756;-77
2024/01/13 02:14:37;;;;;;;;;37.75;32.00;;;;;7.29;100.00;102371.41;2096353;28;45179;-76
2024/01/13 02:15:37;;;;;;;;;39.75;34.75;;;;;7.28;100.00;102377.56;2097197;28;45741;-76
2024/01/13 02:16:38;;;;;;;;;35.75;30.50;;;;;7.18;100.00;102378.22;2097168;28;44938;-76
2024/01/13 02:17:38;;;;;;;;;40.50;33.00;;;;;7.16;100.00;102376.44;2097154;28;45779;-77
2024/01/13 02:18:39;;;;;;;;;33.75;30.50;;;;;7.21;100.00;102370.34;2096654;28;46473;-77
2024/01/13 02:19:39;;;;;;;;;42.00;36.00;;;;;7.20;100.00;102373.88;2096795;28;46621;-77
2024/01/13 02:20:39;;;;;;;;;35.75;28.50;;;;;7.14;100.00;102371.13;2097340;28;45425;-78
2024/01/13 02:21:40;;;;;;;;;25.75;23.50;;;;;7.13;100.00;102376.38;2096267;28;48265;-77
2024/01/13 02:22:40;;;;;;;;;31.00;26.50;;;;;7.26;100.00;102378.38;2097097;28;45794;-79
2024/01/13 02:23:40;;;;;;;;;30.25;29.25;;;;;7.25;100.00;102372.22;2094721;28;46338;-77
2024/01/13 02:24:41;;;;;;;;;32.00;29.50;;;;;7.27;100.00;102367.84;2095412;28;46782;-78
2024/01/13 02:25:41;;;;;;;;;36.25;32.00;;;;;7.28;100.00;102371.38;2096488;28;47046;-77
2024/01/13 02:26:41;;;;;;;;;35.75;30.50;;;;;7.28;100.00;102374.91;2096726;28;45922;-76
2024/01/13 02:27:42;;;;;;;;;29.50;24.25;;;;;7.27;100.00;102370.50;2095890;28;46270;-77
2024/01/13 02:28:42;;;;;;;;;37.25;30.75;;;;;7.26;100.00;102362.53;2088606;28;46394;-76
2024/01/13 02:29:43;;;;;;;;;33.50;31.00;;;;;7.26;100.00;102378.38;2089374;28;45825;-77
2024/01/13 02:30:43;;;;;;;;;30.50;24.75;;;;;7.24;100.00;102370.44;2087805;28;46219;-75
2024/01/13 02:31:43;;;;;;;;;31.00;26.50;;;;;7.23;100.00;102368.63;2092293;28;47706;-75
2024/01/13 02:32:44;;;;;;;;;36.75;31.25;;;;;7.23;100.00;102363.34;2087692;28;45927;-75
2024/01/13 02:33:44;;;;;;;;;34.75;30.25;;;;;7.23;100.00;102368.63;2087169;28;45982;-77
2024/01/13 02:34:44;;;;;;;;;25.25;22.25;;;;;7.23;100.00;102360.72;2087074;28;45776;-77
2024/01/13 02:35:45;;;;;;;;;30.00;22.25;;;;;7.23;100.00;102370.38;2087672;28;45243;-77
2024/01/13 02:36:45;;;;;;;;;30.50;25.25;;;;;7.21;100.00;102370.34;2087528;28;46507;-78
2024/01/13 02:37:45;;;;;;;;;24.75;23.75;;;;;7.21;100.00;102366.84;2070840;28;47982;-79
2024/01/13 02:38:46;;;;;;;;;25.00;22.75;;;;;7.20;100.00;102358.03;2070612;28;46310;-78
2024/01/13 02:39:46;;;;;;;;;31.75;27.00;;;;;7.20;100.00;102365.94;2084838;28;46256;-78
2024/01/13 02:40:46;;;;;;;;;26.75;23.25;;;;;7.19;100.00;102356.25;2087447;28;44903;-78
2024/01/13 02:41:47;;;;;;;;;28.75;25.75;;;;;7.15;100.00;102357.06;2084293;28;46354;-77
2024/01/13 02:42:47;;;;;;;;;29.00;23.00;;;;;7.12;100.00;102358.75;2088174;28;45714;-78
2024/01/13 02:43:49;;;;;;;;;31.25;28.50;;;;;7.13;100.00;102358.78;2087024;28;46524;-78
2024/01/13 02:44:49;;;;;;;;;26.40;24.00;;;;;7.12;100.00;102361.41;2089521;28;46429;-78
2024/01/13 02:45:49;;;;;;;;;26.75;20.50;;;;;7.11;100.00;102360.47;2089380;28;45872;-78
2024/01/13 02:46:50;;;;;;;;;31.50;27.25;;;;;7.09;100.00;102359.56;2089588;28;46282;-77
2024/01/13 02:48:00;;;;;;;;;27.75;25.25;;;;;7.09;100.00;102354.28;2090460;28;46344;-76
2024/01/13 02:49:02;;;;;;;;;27.40;24.20;;;;;7.08;100.00;102363.06;2088879;28;45688;-75
2024/01/13 02:50:02;;;;;;;;;27.40;23.80;;;;;7.07;100.00;102350.72;2095947;28;46527;-75
2024/01/13 02:51:02;;;;;;;;;29.75;26.50;;;;;7.08;100.00;102353.41;2094715;28;46249;-77
2024/01/13 02:52:03;;;;;;;;;32.50;27.00;;;;;7.09;100.00;102352.53;2095586;28;45111;-76
2024/01/13 02:53:03;;;;;;;;;28.50;22.25;;;;;7.07;100.00;102351.63;2095954;28;45470;-77
2024/01/13 02:54:04;;;;;;;;;28.00;24.50;;;;;7.09;100.00;102359.56;2081715;28;45799;-77
2024/01/13 02:55:05;;;;;;;;;25.25;20.25;;;;;7.10;100.00;102361.34;2078902;28;46257;-77
2024/01/13 02:56:05;;;;;;;;;29.50;26.75;;;;;7.09;100.00;102357.81;2078601;28;45243;-77
2024/01/13 02:57:06;;;;;;;;;26.00;24.50;;;;;7.11;100.00;102351.69;2078966;28;47084;-78
2024/01/13 02:58:06;;;;;;;;;29.50;27.00;;;;;7.11;100.00;102352.56;2087867;28;46021;-78
2024/01/13 02:59:07;;;;;;;;;24.40;23.20;;;;;7.13;100.00;102357.91;2092379;28;46948;-77
2024/01/13 03:00:09;;;;;;;;;31.00;27.25;;;;;7.14;100.00;102355.28;2085193;28;46607;-77
2024/01/13 03:01:09;;;;;;;;;25.00;23.60;;;;;7.18;100.00;102350.94;2079089;28;46278;-79
2024/01/13 03:02:09;;;;;;;;;27.00;23.50;;;;;7.20;100.00;102350.09;2090336;28;45592;-76
2024/01/13 03:03:10;;;;;;;;;28.00;25.50;;;;;7.21;100.00;102343.94;2105360;28;46153;-75
2024/01/13 03:04:10;;;;;;;;;19.00;18.00;;;;;7.20;100.00;102341.28;2098105;27;45113;-78
2024/01/13 03:05:11;;;;;;;;;29.25;26.50;;;;;7.21;100.00;102336.03;2096397;28;46151;-77
2024/01/13 03:06:11;;;;;;;;;31.75;25.00;;;;;7.19;100.00;102340.41;2096231;28;47914;-77
2024/01/13 03:07:11;;;;;;;;;17.50;14.75;;;;;7.19;100.00;102336.88;2093329;28;46310;-76
2024/01/13 03:08:12;;;;;;;;;22.00;20.50;;;;;7.16;100.00;102327.16;2088571;28;45440;-79
2024/01/13 03:09:12;;;;;;;;;32.50;26.00;;;;;7.16;100.00;102335.06;2095956;28;46663;-79
2024/01/13 03:10:13;;;;;;;;;28.00;23.00;;;;;7.13;100.00;102318.31;2096461;28;46379;-79
2024/01/13 03:11:13;;;;;;;;;30.25;22.00;;;;;7.16;100.00;102329.78;2096523;28;46895;-80
2024/01/13 03:12:13;;;;;;;;;26.00;22.25;;;;;7.15;100.00;102327.13;2096375;28;45735;-81
2024/01/13 03:13:14;;;;;;;;;18.50;18.00;;;;;7.15;100.00;102324.50;2096306;28;45927;-79
2024/01/13 03:14:14;;;;;;;;;23.00;19.00;;;;;7.15;100.00;102325.38;2097012;28;45768;-78
2024/01/13 03:15:14;;;;;;;;;27.00;24.75;;;;;7.16;100.00;102324.50;2096578;28;45753;-79
2024/01/13 03:16:15;;;;;;;;;24.75;20.75;;;;;7.15;100.00;102322.75;2096599;28;46028;-78
2024/01/13 03:17:15;;;;;;;;;21.00;20.25;;;;;7.15;100.00;102324.50;2094641;28;45016;-78
2024/01/13 03:18:16;;;;;;;;;16.25;13.75;;;;;7.16;100.00;102324.50;2090415;28;44863;-79
2024/01/13 03:19:17;;;;;;;;;22.75;22.75;;;;;7.15;100.00;102316.56;2087652;28;46020;-76
2024/01/13 03:20:18;;;;;;;;;30.20;22.60;;;;;7.15;100.00;102321.84;2087261;28;47625;-76
2024/01/13 03:21:18;;;;;;;;;25.50;24.00;;;;;7.16;100.00;102315.72;2095971;28;46586;-75
2024/01/13 03:22:18;;;;;;;;;32.00;27.00;;;;;7.18;100.00;102312.22;2097047;28;46803;-77
2024/01/13 03:23:19;;;;;;;;;21.75;18.75;;;;;7.20;100.00;102313.13;2097062;28;46004;-76
2024/01/13 03:24:19;;;;;;;;;23.75;21.50;;;;;7.19;100.00;102311.34;2096428;28;47007;-76
2024/01/13 03:25:19;;;;;;;;;25.25;22.75;;;;;7.19;100.00;102314.00;2096388;28;45920;-77
2024/01/13 03:26:20;;;;;;;;;26.00;24.50;;;;;7.19;100.00;102310.47;2095905;28;45410;-76
2024/01/13 03:27:20;;;;;;;;;15.75;14.00;;;;;7.19;100.00;102311.34;2095930;28;46185;-76
2024/01/13 03:28:24;;;;;;;;;23.25;22.75;;;;;7.17;100.00;102317.47;2094407;28;45719;-78
2024/01/13 03:29:24;;;;;;;;;23.60;19.40;;;;;7.18;100.00;102308.69;2095736;28;45138;-77
2024/01/13 03:30:25;;;;;;;;;25.25;22.50;;;;;7.15;100.00;102314.81;2096394;28;46916;-76
2024/01/13 03:31:25;;;;;;;;;29.75;23.25;;;;;7.13;100.00;102299.81;2095340;28;46429;-76
2024/01/13 03:32:25;;;;;;;;;27.50;25.25;;;;;7.14;100.00;102305.13;2087872;28;46319;-75
2024/01/13 03:33:26;;;;;;;;;30.50;28.00;;;;;7.16;100.00;102305.16;2092858;28;45589;-76
2024/01/13 03:34:26;;;;;;;;;27.00;22.00;;;;;7.12;100.00;102293.66;2095101;28;45967;-76
2024/01/13 03:35:27;;;;;;;;;25.00;24.25;;;;;7.12;100.00;102295.41;2097335;28;45893;-78
2024/01/13 03:36:28;;;;;;;;;34.20;24.80;;;;;7.09;100.00;102294.47;2097259;28;45821;-76
2024/01/13 03:37:28;;;;;;;;;25.75;20.25;;;;;7.09;100.00;102290.94;2098363;28;45660;-77
2024/01/13 03:38:28;;;;;;;;;29.00;23.50;;;;;7.08;100.00;102292.69;2097931;28;45032;-76
2024/01/13 03:39:29;;;;;;;;;26.25;23.50;;;;;7.06;100.00;102293.53;2099295;28;45831;-74
2024/01/13 03:40:29;;;;;;;;;25.75;21.50;;;;;7.05;100.00;102297.03;2097634;28;45863;-74
2024/01/13 03:41:30;;;;;;;;;24.75;22.00;;;;;7.05;100.00;102292.63;2098009;28;46324;-75
2024/01/13 03:42:33;;;;;;;;;24.00;20.00;;;;;7.06;100.00;102285.59;2097085;28;45608;-76
2024/01/13 03:43:33;;;;;;;;;24.25;19.00;;;;;7.08;100.00;102291.78;2097663;28;47564;-77
2024/01/13 03:44:34;;;;;;;;;22.00;19.75;;;;;7.08;100.00;102286.53;2097764;28;47448;-79
2024/01/13 03:45:34;;;;;;;;;22.75;20.75;;;;;7.08;100.00;102282.13;2098215;28;45476;-78
2024/01/13 03:46:35;;;;;;;;;22.75;20.75;;;;;7.08;100.00;102283.88;2097291;28;46128;-78
2024/01/13 03:47:35;;;;;;;;;27.25;22.25;;;;;7.09;100.00;102275.97;2098250;28;46836;-78
2024/01/13 03:48:35;;;;;;;;;23.00;21.75;;;;;7.12;100.00;102280.44;2096928;28;48643;-78
2024/01/13 03:49:36;;;;;;;;;28.75;23.25;;;;;7.11;100.00;102273.38;2097547;28;46326;-78
2024/01/13 03:50:36;;;;;;;;;27.25;22.75;;;;;7.12;100.00;102271.66;2097402;28;47157;-78
2024/01/13 03:51:36;;;;;;;;;24.25;22.50;;;;;7.13;100.00;102269.03;2096797;28;46234;-77
2024/01/13 03:52:37;;;;;;;;;23.25;22.50;;;;;7.13;100.00;102262.88;2098020;28;46542;-77
2024/01/13 03:53:37;;;;;;;;;27.75;26.00;;;;;7.10;100.00;102263.66;2098446;28;45501;-78
2024/01/13 03:54:37;;;;;;;;;23.75;20.75;;;;;7.09;100.00;102257.50;2097374;28;46192;-78
2024/01/13 03:55:38;;;;;;;;;25.75;22.50;;;;;7.07;100.00;102251.31;2097573;28;46356;-77
2024/01/13 03:56:38;;;;;;;;;25.25;19.25;;;;;7.07;100.00;102260.97;2097434;28;46561;-79
2024/01/13 03:57:39;;;;;;;;;27.50;24.25;;;;;7.08;100.00;102255.72;2098379;28;45486;-77
2024/01/13 03:58:39;;;;;;;;;18.60;16.20;;;;;7.07;100.00;102263.63;2097874;28;47164;-77
2024/01/13 03:59:40;;;;;;;;;29.50;24.50;;;;;7.07;100.00;102253.94;2098194;28;46498;-77
2024/01/13 04:00:40;;;;;;;;;25.50;22.00;;;;;7.07;100.00;102263.63;2098235;28;45557;-77
2024/01/13 04:01:41;;;;;;;;;29.00;25.75;;;;;7.06;100.00;102259.22;2098241;28;45689;-77
2024/01/13 04:02:41;;;;;;;;;22.50;20.50;;;;;7.05;100.00;102260.06;2097777;28;45872;-77
2024/01/13 04:03:41;;;;;;;;;23.75;23.75;;;;;7.07;100.00;102255.72;2097208;28;46852;-78
2024/01/13 04:04:42;;;;;;;;;29.25;23.25;;;;;7.07;100.00;102259.22;2097360;28;46016;-79
2024/01/13 04:05:42;;;;;;;;;26.00;22.75;;;;;7.09;100.00;102261.91;2097336;28;47861;-78
2024/01/13 04:06:43;;;;;;;;;26.50;22.25;;;;;7.09;100.00;102257.50;2097517;28;46959;-79
2024/01/13 04:07:43;;;;;;;;;33.00;25.75;;;;;7.09;100.00;102260.13;2097314;28;45794;-78
2024/01/13 04:08:46;;;;;;;;;27.50;24.00;;;;;7.09;100.00;102256.63;2096865;28;45485;-77
2024/01/13 04:09:46;;;;;;;;;25.40;22.20;;;;;7.10;100.00;102258.38;2106465;27;45713;-78
2024/01/13 04:10:46;;;;;;;;;23.50;22.00;;;;;7.09;100.00;102262.78;2098169;28;45195;-76
2024/01/13 04:11:47;;;;;;;;;25.25;22.50;;;;;7.10;100.00;102263.66;2096045;28;46320;-76
2024/01/13 04:12:47;;;;;;;;;31.00;25.50;;;;;7.10;100.00;102261.03;2097982;28;46101;-77
2024/01/13 04:13:47;;;;;;;;;27.50;23.00;;;;;7.09;100.00;102264.53;2097624;28;45596;-76
2024/01/13 04:14:48;;;;;;;;;30.25;28.00;;;;;7.08;100.00;102260.13;2097492;28;45904;-77
2024/01/13 04:15:48;;;;;;;;;29.75;23.50;;;;;7.08;100.00;102261.00;2097282;28;45696;-77
2024/01/13 04:16:48;;;;;;;;;26.75;25.50;;;;;7.07;100.00;102258.34;2097251;28;45531;-78
2024/01/13 04:17:49;;;;;;;;;20.75;18.50;;;;;7.05;100.00;102260.06;2097898;28;45739;-76
2024/01/13 04:18:49;;;;;;;;;29.25;25.50;;;;;7.02;100.00;102244.19;2097907;28;46414;-81
2024/01/13 04:19:49;;;;;;;;;28.00;26.25;;;;;7.03;100.00;102249.50;2096978;28;45908;-80
2024/01/13 04:20:50;;;;;;;;;34.00;24.50;;;;;7.04;100.00;102242.47;2094746;28;44917;-78
2024/01/13 04:21:50;;;;;;;;;20.50;20.50;;;;;7.03;100.00;102241.56;2093960;28;46486;-80
2024/01/13 04:22:50;;;;;;;;;33.75;28.00;;;;;7.01;100.00;102238.03;2098385;28;45932;-79
2024/01/13 04:23:51;;;;;;;;;28.00;23.00;;;;;7.03;100.00;102246.84;2097754;28;45724;-80
2024/01/13 04:24:52;;;;;;;;;26.80;21.40;;;;;7.03;100.00;102243.31;2097987;28;45607;-78
2024/01/13 04:25:52;;;;;;;;;28.50;24.50;;;;;7.03;100.00;102244.22;2097159;28;45515;-80
2024/01/13 04:26:52;;;;;;;;;27.75;23.50;;;;;7.04;100.00;102243.34;2097856;28;45086;-81
2024/01/13 04:27:54;;;;;;;;;27.75;24.00;;;;;7.05;100.00;102242.47;2097303;28;46776;-80
2024/01/13 04:28:55;;;;;;;;;28.80;25.20;;;;;7.05;100.00;102237.22;2096550;28;45724;-80
2024/01/13 04:29:55;;;;;;;;;25.25;23.25;;;;;7.05;100.00;102239.84;2095835;28;46392;-78
2024/01/13 04:30:56;;;;;;;;;25.50;23.50;;;;;7.06;100.00;102243.38;2097379;28;46085;-78
2024/01/13 04:31:56;;;;;;;;;23.00;21.75;;;;;7.06;100.00;102236.34;2097330;28;46834;-77
2024/01/13 04:32:57;;;;;;;;;27.00;22.75;;;;;7.05;100.00;102244.22;2097362;28;45900;-77
2024/01/13 04:33:57;;;;;;;;;28.25;28.25;;;;;7.06;100.00;102246.91;2095400;28;46889;-77
2024/01/13 04:34:58;;;;;;;;;29.25;27.50;;;;;7.09;100.00;102248.69;2097638;28;46649;-77